SEA weather

Seattle Tacoma International Airport
Seattle, Washington, United States

Public forecast

Using degrees Fahrenheit for public forecast. Weather courtesy of forecast.io.

METAR (pilot weather report)

Retrieved 2017/05/24 23:53 UTC (1 hour ago):

KSEA 242353Z 35004KT 10SM OVC050 16/04 A2997 RMK AO2 SLP154 T01560039 10172 20128 55008

TAF (pilot weather forecast)

Forecast is more than 12 hours old.

Retrieved 2017/05/24 00:22 UTC (1 day ago):

TAF KSEA 242320Z 2500/2606 33006KT P6SM FEW035 BKN050 FM250400 VRB03KT P6SM SCT040 SCT120 FM252000 33008KT P6SM FEW050